Time;durP1;ratioP1;P1;durP2;ratioP2;P2;SDS_P1;SDS_P2;PMS_P1;PMS_P2;Temp;Humidity;BMP_temperature;BMP_pressure;BME280_temperature;BME280_humidity;BME280_pressure;Samples;Min_cycle;Max_cycle;Signal;HPM_P1;HPM_P2
2024/03/11 00:01:13;0.00;0.00;0.62;0.00;0.00;0.62;7.93;7.13;;;22.90;22.40;;;;;;2727570;45;20411;-65
2024/03/11 00:03:57;0.00;0.00;0.62;0.00;0.00;0.62;7.17;6.10;;;22.80;22.20;;;;;;2259757;61;20372;-65
2024/03/11 00:06:44;0.00;0.00;0.62;0.00;0.00;0.62;6.93;6.20;;;22.90;22.30;;;;;;2260683;61;20368;-65
2024/03/11 00:09:28;0.00;0.00;0.62;0.00;0.00;0.62;7.37;6.23;;;22.90;22.40;;;;;;2263935;61;20445;-65
2024/03/11 00:12:17;0.00;0.00;0.62;0.00;0.00;0.62;7.13;6.10;;;22.90;22.30;;;;;;2263617;61;20407;-65
2024/03/11 00:15:03;0.00;0.00;0.62;0.00;0.00;0.62;7.77;6.97;;;22.90;22.40;;;;;;2263405;61;20418;-65
2024/03/11 00:17:49;0.00;0.00;0.62;0.00;0.00;0.62;8.03;7.00;;;22.90;22.40;;;;;;2263502;61;20395;-65
2024/03/11 00:20:33;0.00;0.00;0.62;0.00;0.00;0.62;6.93;6.13;;;22.90;22.40;;;;;;2263664;61;20502;-65
2024/03/11 00:23:18;0.00;0.00;0.62;0.00;0.00;0.62;7.43;6.63;;;22.80;22.30;;;;;;2549496;45;20364;-65
2024/03/11 00:26:05;0.00;0.00;0.62;0.00;0.00;0.62;7.10;6.40;;;22.90;22.40;;;;;;2259690;61;20383;-65
2024/03/11 00:28:50;0.00;0.00;0.62;0.00;0.00;0.62;7.47;6.67;;;22.90;22.40;;;;;;2260517;61;20364;-65
2024/03/11 00:31:36;0.00;0.00;0.62;0.00;0.00;0.62;8.10;6.87;;;22.80;22.30;;;;;;2263924;61;20590;-64
2024/03/11 00:34:22;0.00;0.00;0.62;0.00;0.00;0.62;6.80;6.00;;;22.90;22.40;;;;;;2263435;61;20531;-65
2024/03/11 00:37:07;0.00;0.00;0.62;0.00;0.00;0.62;7.83;7.03;;;22.90;22.40;;;;;;2263234;61;20430;-64
2024/03/11 00:39:51;0.00;0.00;0.62;0.00;0.00;0.62;6.70;5.93;;;22.80;22.30;;;;;;2263419;61;20414;-65
2024/03/11 00:42:39;0.00;0.00;0.62;0.00;0.00;0.62;7.20;6.47;;;22.90;22.40;;;;;;2263589;61;20785;-65
2024/03/11 00:45:24;0.00;0.00;0.62;0.00;0.00;0.62;8.10;6.97;;;22.90;22.40;;;;;;2669364;45;20381;-65
2024/03/11 00:48:11;0.00;0.00;0.62;0.00;0.00;0.62;7.70;6.80;;;22.90;22.40;;;;;;2259556;61;20941;-64
2024/03/11 00:50:57;0.00;0.00;0.62;0.00;0.00;0.62;7.40;6.23;;;22.80;22.30;;;;;;2260058;61;20417;-64
2024/03/11 00:53:42;0.00;0.00;0.62;0.00;0.00;0.62;7.87;6.53;;;22.80;22.30;;;;;;2263931;61;20913;-65
2024/03/11 00:56:27;0.00;0.00;0.62;0.00;0.00;0.62;7.67;6.87;;;22.80;22.30;;;;;;2263421;61;20821;-64
2024/03/11 00:59:14;0.00;0.00;0.62;0.00;0.00;0.62;6.80;6.10;;;22.80;22.30;;;;;;2263144;61;20896;-65
2024/03/11 01:01:59;0.00;0.00;0.62;0.00;0.00;0.62;8.23;6.80;;;22.80;22.30;;;;;;2260350;61;20356;-65
2024/03/11 01:04:45;0.00;0.00;0.62;0.00;0.00;0.62;7.33;6.20;;;22.80;22.30;;;;;;2263432;61;20388;-65
2024/03/11 01:07:32;0.00;0.00;0.62;0.00;0.00;0.62;8.47;7.60;;;22.80;22.30;;;;;;2263166;61;20443;-65
2024/03/11 01:10:17;0.00;0.00;0.62;0.00;0.00;0.62;6.80;6.20;;;22.80;22.30;;;;;;2263600;61;20372;-65
2024/03/11 01:13:02;0.00;0.00;0.62;0.00;0.00;0.62;7.30;6.50;;;22.90;22.40;;;;;;2263183;61;20422;-65
2024/03/11 01:15:46;0.00;0.00;0.62;0.00;0.00;0.62;7.60;6.53;;;22.90;22.40;;;;;;2263526;61;20799;-65
2024/03/11 01:18:31;0.00;0.00;0.62;0.00;0.00;0.62;7.50;6.40;;;22.80;22.30;;;;;;2263230;61;20356;-65
2024/03/11 01:21:20;0.00;0.00;0.62;0.00;0.00;0.62;7.03;6.33;;;22.90;22.40;;;;;;2263336;61;20368;-65
2024/03/11 01:24:10;0.00;0.00;0.62;0.00;0.00;0.62;7.50;6.70;;;22.80;22.30;;;;;;2263515;61;20388;-65
2024/03/11 01:26:57;0.00;0.00;0.62;0.00;0.00;0.62;7.37;6.57;;;22.80;22.30;;;;;;2263604;61;20368;-65
2024/03/11 01:29:42;0.00;0.00;0.62;0.00;0.00;0.62;6.93;5.40;;;22.80;22.30;;;;;;2263175;61;20368;-65
2024/03/11 01:32:27;0.00;0.00;0.62;0.00;0.00;0.62;8.90;7.13;;;22.80;22.30;;;;;;2263396;61;20368;-65
2024/03/11 01:35:13;0.00;0.00;0.62;0.00;0.00;0.62;8.10;7.20;;;22.80;22.30;;;;;;2262967;61;20391;-65
2024/03/11 01:37:58;0.00;0.00;0.62;0.00;0.00;0.62;7.43;6.63;;;22.80;22.30;;;;;;2263293;61;20420;-65
2024/03/11 01:40:46;0.00;0.00;0.62;0.00;0.00;0.62;6.50;5.70;;;22.80;22.30;;;;;;2263528;61;20626;-65
2024/03/11 01:43:31;0.00;0.00;0.62;0.00;0.00;0.62;7.90;7.10;;;22.80;22.30;;;;;;2262292;61;20858;-65
2024/03/11 01:46:16;0.00;0.00;0.62;0.00;0.00;0.62;8.03;7.13;;;22.80;22.30;;;;;;2611546;45;20376;-65
2024/03/11 01:49:04;0.00;0.00;0.62;0.00;0.00;0.62;7.53;6.30;;;22.80;22.80;;;;;;2526234;53;20949;-65
2024/03/11 01:51:49;0.00;0.00;0.62;0.00;0.00;0.62;6.70;6.00;;;22.80;22.30;;;;;;2263389;61;20367;-65
2024/03/11 01:54:43;0.00;0.00;0.62;0.00;0.00;0.62;7.57;6.17;;;22.80;22.30;;;;;;2263700;61;20925;-65
2024/03/11 01:57:33;0.00;0.00;0.62;0.00;0.00;0.62;7.57;6.40;;;22.80;22.30;;;;;;2259166;61;20899;-65
2024/03/11 02:00:21;0.00;0.00;0.62;0.00;0.00;0.62;6.40;5.80;;;22.80;22.30;;;;;;2260061;61;20502;-65
2024/03/11 02:03:06;0.00;0.00;0.62;0.00;0.00;0.62;7.63;6.50;;;22.80;22.30;;;;;;2263203;61;20841;-65
2024/03/11 02:05:52;0.00;0.00;0.62;0.00;0.00;0.62;7.90;6.93;;;22.80;22.30;;;;;;2263235;61;20967;-65
2024/03/11 02:08:37;0.00;0.00;0.62;0.00;0.00;0.62;7.17;6.33;;;22.90;22.40;;;;;;2263109;61;20386;-65
2024/03/11 02:11:24;0.00;0.00;0.62;0.00;0.00;0.62;8.60;6.80;;;22.80;22.30;;;;;;2263502;61;20368;-65
2024/03/11 02:14:10;0.00;0.00;0.62;0.00;0.00;0.62;6.73;5.60;;;22.80;22.30;;;;;;2400332;53;20380;-65
2024/03/11 02:16:58;0.00;0.00;0.62;0.00;0.00;0.62;8.20;7.20;;;22.80;22.30;;;;;;2259163;61;20448;-65
2024/03/11 02:19:43;0.00;0.00;0.62;0.00;0.00;0.62;6.80;6.10;;;22.80;22.30;;;;;;2258888;61;20451;-65
2024/03/11 02:22:28;0.00;0.00;0.62;0.00;0.00;0.62;6.70;6.00;;;22.80;22.30;;;;;;2259252;61;20376;-65
2024/03/11 02:25:15;0.00;0.00;0.62;0.00;0.00;0.62;6.80;6.10;;;22.80;22.30;;;;;;2263184;61;20901;-65
2024/03/11 02:28:03;0.00;0.00;0.62;0.00;0.00;0.62;6.90;5.90;;;22.80;22.30;;;;;;2262359;61;20497;-64
2024/03/11 02:30:48;0.00;0.00;0.62;0.00;0.00;0.62;7.63;6.53;;;22.80;22.40;;;;;;2263222;61;20356;-65
2024/03/11 02:33:32;0.00;0.00;0.62;0.00;0.00;0.62;7.40;6.57;;;22.80;22.30;;;;;;2263379;61;20379;-65
2024/03/11 02:36:22;0.00;0.00;0.62;0.00;0.00;0.62;6.93;6.10;;;22.80;22.30;;;;;;2262729;61;20388;-64
2024/03/11 02:39:07;0.00;0.00;0.62;0.00;0.00;0.62;6.43;5.60;;;22.80;22.30;;;;;;2263199;61;20822;-64
2024/03/11 02:41:54;0.00;0.00;0.62;0.00;0.00;0.62;7.50;6.10;;;22.80;22.30;;;;;;2263306;61;20364;-64
2024/03/11 02:44:39;0.00;0.00;0.62;0.00;0.00;0.62;7.07;6.30;;;22.80;22.30;;;;;;2495523;53;20400;-64
2024/03/11 02:47:23;0.00;0.00;0.62;0.00;0.00;0.62;6.80;6.20;;;22.80;22.30;;;;;;2259076;61;20372;-65
2024/03/11 02:50:09;0.00;0.00;0.62;0.00;0.00;0.62;7.47;6.63;;;22.80;22.30;;;;;;2260590;61;20448;-64
2024/03/11 02:52:54;0.00;0.00;0.62;0.00;0.00;0.62;7.30;6.10;;;22.80;22.30;;;;;;2263236;61;20368;-64
2024/03/11 02:55:38;0.00;0.00;0.62;0.00;0.00;0.62;6.50;5.80;;;22.80;22.40;;;;;;2263300;61;20375;-65
2024/03/11 02:58:25;0.00;0.00;0.62;0.00;0.00;0.62;7.33;6.47;;;22.80;22.30;;;;;;2262794;61;20404;-64
2024/03/11 03:01:09;0.00;0.00;0.62;0.00;0.00;0.62;7.13;6.30;;;22.80;22.30;;;;;;2263231;61;20376;-65
2024/03/11 03:03:54;0.00;0.00;0.62;0.00;0.00;0.62;8.77;7.50;;;22.80;22.30;;;;;;2263278;61;20419;-64
2024/03/11 03:06:38;0.00;0.00;0.62;0.00;0.00;0.62;6.87;6.17;;;22.80;22.30;;;;;;2616527;45;20356;-64
2024/03/11 03:09:24;0.00;0.00;0.62;0.00;0.00;0.62;8.10;7.30;;;22.80;22.30;;;;;;2259876;61;20920;-65
2024/03/11 03:12:09;0.00;0.00;0.62;0.00;0.00;0.62;7.47;6.03;;;22.80;22.30;;;;;;2263168;61;20822;-64
2024/03/11 03:14:55;0.00;0.00;0.62;0.00;0.00;0.62;8.03;6.60;;;22.80;22.40;;;;;;2263321;61;20822;-64
2024/03/11 03:17:40;0.00;0.00;0.62;0.00;0.00;0.62;7.10;6.40;;;22.80;22.30;;;;;;2263156;61;20407;-64
2024/03/11 03:20:25;0.00;0.00;0.62;0.00;0.00;0.62;7.47;6.70;;;22.80;22.40;;;;;;2262805;61;20367;-65
2024/03/11 03:23:09;0.00;0.00;0.62;0.00;0.00;0.62;6.93;5.93;;;22.80;22.30;;;;;;2263289;61;20384;-65
2024/03/11 03:25:54;0.00;0.00;0.62;0.00;0.00;0.62;6.77;5.93;;;22.80;22.40;;;;;;2257277;61;20387;-63
2024/03/11 03:28:40;0.00;0.00;0.62;0.00;0.00;0.62;7.67;6.37;;;22.80;22.40;;;;;;2263006;61;20375;-64
2024/03/11 03:31:27;0.00;0.00;0.62;0.00;0.00;0.62;7.00;6.23;;;22.80;22.40;;;;;;2263086;61;20898;-64
2024/03/11 03:34:12;0.00;0.00;0.62;0.00;0.00;0.62;6.50;5.50;;;22.80;22.40;;;;;;2262870;61;20422;-64
2024/03/11 03:36:57;0.00;0.00;0.62;0.00;0.00;0.62;8.30;7.10;;;22.80;22.40;;;;;;2259969;61;20853;-65
2024/03/11 03:39:41;0.00;0.00;0.62;0.00;0.00;0.62;11.40;7.37;;;22.80;22.40;;;;;;2263054;61;20775;-65
2024/03/11 03:42:27;0.00;0.00;0.62;0.00;0.00;0.62;6.60;6.00;;;22.80;22.40;;;;;;2262724;61;20368;-65
2024/03/11 03:45:12;0.00;0.00;0.62;0.00;0.00;0.62;7.30;6.30;;;22.80;22.40;;;;;;2263001;61;20987;-65
2024/03/11 03:47:58;0.00;0.00;0.62;0.00;0.00;0.62;8.57;6.60;;;22.80;22.40;;;;;;2263079;61;20387;-65
2024/03/11 03:50:43;0.00;0.00;0.62;0.00;0.00;0.62;7.90;6.17;;;22.80;22.40;;;;;;2259851;61;20371;-65
2024/03/11 03:53:28;0.00;0.00;0.62;0.00;0.00;0.62;6.43;5.43;;;22.80;22.40;;;;;;2263483;61;20475;-65
2024/03/11 03:56:13;0.00;0.00;0.62;0.00;0.00;0.62;7.53;6.57;;;22.80;22.40;;;;;;2263235;61;20403;-65
2024/03/11 03:58:57;0.00;0.00;0.62;0.00;0.00;0.62;8.33;6.40;;;22.80;22.40;;;;;;2264035;61;20399;-65
2024/03/11 04:01:42;0.00;0.00;0.62;0.00;0.00;0.62;6.87;6.17;;;22.80;22.40;;;;;;2263121;61;20499;-65
2024/03/11 04:04:29;0.00;0.00;0.62;0.00;0.00;0.62;7.20;6.47;;;22.80;22.40;;;;;;2262796;61;20978;-65
2024/03/11 04:07:13;0.00;0.00;0.62;0.00;0.00;0.62;8.23;6.53;;;22.70;22.30;;;;;;2263453;61;20410;-65
2024/03/11 04:09:58;0.00;0.00;0.62;0.00;0.00;0.62;7.60;6.80;;;22.70;22.30;;;;;;2263002;61;20943;-65
2024/03/11 04:12:47;0.00;0.00;0.62;0.00;0.00;0.62;6.67;6.00;;;22.70;22.30;;;;;;2262939;61;20364;-65
2024/03/11 04:15:31;0.00;0.00;0.62;0.00;0.00;0.62;7.83;6.03;;;22.70;22.30;;;;;;2262822;61;20407;-65
2024/03/11 04:18:16;0.00;0.00;0.62;0.00;0.00;0.62;6.20;5.60;;;22.80;22.40;;;;;;2262316;61;20480;-64
2024/03/11 04:21:06;0.00;0.00;0.62;0.00;0.00;0.62;7.40;6.33;;;22.70;22.30;;;;;;2263222;61;20490;-65
2024/03/11 04:23:50;0.00;0.00;0.62;0.00;0.00;0.62;7.10;5.40;;;22.70;22.40;;;;;;2263481;61;20364;-65
2024/03/11 04:26:35;0.00;0.00;0.62;0.00;0.00;0.62;7.20;6.20;;;22.70;22.40;;;;;;2261877;61;20445;-65
2024/03/11 04:29:19;0.00;0.00;0.62;0.00;0.00;0.62;6.67;5.70;;;22.70;22.40;;;;;;2263664;61;20364;-65
2024/03/11 04:32:06;0.00;0.00;0.62;0.00;0.00;0.62;7.70;6.90;;;22.70;22.30;;;;;;2263798;61;20730;-65
2024/03/11 04:34:51;0.00;0.00;0.62;0.00;0.00;0.62;7.90;6.37;;;22.70;22.40;;;;;;2263302;61;20387;-65
2024/03/11 04:37:38;0.00;0.00;0.62;0.00;0.00;0.62;6.77;6.07;;;22.70;22.40;;;;;;2263653;61;21023;-65
2024/03/11 04:40:25;0.00;0.00;0.62;0.00;0.00;0.62;7.50;6.80;;;22.70;22.40;;;;;;2263328;61;20413;-65
2024/03/11 04:43:10;0.00;0.00;0.62;0.00;0.00;0.62;6.50;5.70;;;22.70;22.40;;;;;;2259620;61;20403;-65
2024/03/11 04:45:55;0.00;0.00;0.62;0.00;0.00;0.62;8.73;6.80;;;22.70;22.40;;;;;;2259581;61;20401;-65
2024/03/11 04:48:40;0.00;0.00;0.62;0.00;0.00;0.62;6.83;6.00;;;22.70;22.40;;;;;;2261015;61;20447;-65
2024/03/11 04:51:25;0.00;0.00;0.62;0.00;0.00;0.62;6.50;5.90;;;22.70;22.40;;;;;;2263728;61;20446;-65
2024/03/11 04:54:11;0.00;0.00;0.62;0.00;0.00;0.62;7.03;6.33;;;22.70;22.40;;;;;;2263631;61;20386;-65
2024/03/11 04:56:55;0.00;0.00;0.62;0.00;0.00;0.62;7.03;6.30;;;22.70;22.40;;;;;;2263147;61;20807;-65
2024/03/11 04:59:40;0.00;0.00;0.62;0.00;0.00;0.62;7.73;6.93;;;22.70;22.40;;;;;;2263691;61;20368;-65
2024/03/11 05:02:24;0.00;0.00;0.62;0.00;0.00;0.62;6.93;5.60;;;22.70;22.40;;;;;;2263648;61;20363;-64
2024/03/11 05:05:10;0.00;0.00;0.62;0.00;0.00;0.62;6.50;5.90;;;22.70;22.90;;;;;;2648912;45;20438;-65
2024/03/11 05:07:55;0.00;0.00;0.62;0.00;0.00;0.62;7.50;6.70;;;22.70;22.40;;;;;;2263622;61;20360;-65
2024/03/11 05:10:41;0.00;0.00;0.62;0.00;0.00;0.62;7.40;6.47;;;22.70;22.40;;;;;;2263174;61;20786;-65
2024/03/11 05:13:26;0.00;0.00;0.62;0.00;0.00;0.62;7.87;6.37;;;22.70;22.40;;;;;;2263670;61;20387;-65
2024/03/11 05:16:10;0.00;0.00;0.62;0.00;0.00;0.62;7.63;6.60;;;22.70;22.40;;;;;;2260279;61;20443;-65
2024/03/11 05:18:55;0.00;0.00;0.62;0.00;0.00;0.62;6.53;5.73;;;22.70;22.40;;;;;;2263060;61;20388;-65
2024/03/11 05:21:39;0.00;0.00;0.62;0.00;0.00;0.62;5.57;5.07;;;22.70;22.40;;;;;;2263671;61;20711;-65
2024/03/11 05:24:24;0.00;0.00;0.62;0.00;0.00;0.62;6.67;5.90;;;22.70;22.40;;;;;;2263543;61;20364;-65
2024/03/11 05:27:10;0.00;0.00;0.62;0.00;0.00;0.62;6.50;5.90;;;22.70;22.40;;;;;;2263374;61;20845;-65
2024/03/11 05:29:55;0.00;0.00;0.62;0.00;0.00;0.62;7.13;6.27;;;22.70;23.00;;;;;;2263527;61;20368;-65
2024/03/11 05:32:40;0.00;0.00;0.62;0.00;0.00;0.62;7.13;5.87;;;22.70;22.40;;;;;;2263203;61;20470;-65
2024/03/11 05:35:25;0.00;0.00;0.62;0.00;0.00;0.62;6.77;6.07;;;22.70;22.40;;;;;;2263447;61;20388;-65
2024/03/11 05:38:10;0.00;0.00;0.62;0.00;0.00;0.62;6.50;5.90;;;22.70;22.40;;;;;;2263318;61;20411;-65
2024/03/11 05:40:56;0.00;0.00;0.62;0.00;0.00;0.62;7.00;6.30;;;22.70;22.40;;;;;;2263203;61;20438;-65
2024/03/11 05:43:42;0.00;0.00;0.62;0.00;0.00;0.62;7.83;6.77;;;22.70;22.40;;;;;;2263389;61;20800;-64
2024/03/11 05:46:28;0.00;0.00;0.62;0.00;0.00;0.62;6.10;5.50;;;22.70;22.40;;;;;;2263409;61;20523;-65
2024/03/11 05:49:13;0.00;0.00;0.62;0.00;0.00;0.62;7.37;6.67;;;22.70;22.50;;;;;;2263208;61;20367;-65
2024/03/11 05:51:58;0.00;0.00;0.62;0.00;0.00;0.62;8.50;6.70;;;22.70;22.40;;;;;;2263673;61;20693;-65
2024/03/11 05:54:50;0.00;0.00;0.62;0.00;0.00;0.62;7.30;5.80;;;22.70;22.40;;;;;;2263126;61;20404;-65
2024/03/11 05:57:35;0.00;0.00;0.62;0.00;0.00;0.62;6.47;5.77;;;22.70;22.40;;;;;;2263612;61;20426;-65
2024/03/11 06:00:21;0.00;0.00;0.62;0.00;0.00;0.62;7.53;6.30;;;22.70;22.40;;;;;;2263376;61;20364;-65
2024/03/11 06:03:07;0.00;0.00;0.62;0.00;0.00;0.62;7.87;7.07;;;22.70;22.40;;;;;;2263166;61;20384;-65
2024/03/11 06:05:51;0.00;0.00;0.62;0.00;0.00;0.62;6.10;5.53;;;22.70;22.50;;;;;;2260217;61;20383;-65
2024/03/11 06:08:37;0.00;0.00;0.62;0.00;0.00;0.62;7.53;6.80;;;22.70;22.40;;;;;;2263424;61;20360;-65
2024/03/11 06:11:23;0.00;0.00;0.62;0.00;0.00;0.62;6.30;5.50;;;22.70;22.40;;;;;;2263212;61;20448;-64
2024/03/11 06:14:12;0.00;0.00;0.62;0.00;0.00;0.62;7.00;6.17;;;22.70;23.00;;;;;;2260103;61;20375;-65
2024/03/11 06:16:59;0.00;0.00;0.62;0.00;0.00;0.62;6.67;6.00;;;22.70;22.40;;;;;;2262782;61;20537;-65
2024/03/11 06:19:44;0.00;0.00;0.62;0.00;0.00;0.62;7.43;6.30;;;22.70;22.40;;;;;;2263351;61;20368;-65
2024/03/11 06:22:28;0.00;0.00;0.62;0.00;0.00;0.62;6.97;6.27;;;22.70;22.50;;;;;;2263333;61;20419;-65
2024/03/11 06:25:15;0.00;0.00;0.62;0.00;0.00;0.62;7.53;6.70;;;22.70;22.40;;;;;;2263089;61;20469;-65
2024/03/11 06:27:59;0.00;0.00;0.62;0.00;0.00;0.62;6.60;5.80;;;22.70;22.40;;;;;;2263209;61;20407;-65
2024/03/11 06:30:47;0.00;0.00;0.62;0.00;0.00;0.62;6.77;6.00;;;22.60;22.40;;;;;;2263304;61;20430;-65
2024/03/11 06:33:34;0.00;0.00;0.62;0.00;0.00;0.62;7.10;6.40;;;22.70;22.50;;;;;;2263026;61;20376;-65
2024/03/11 06:36:19;0.00;0.00;0.62;0.00;0.00;0.62;13.50;7.27;;;22.60;22.40;;;;;;2263279;61;20384;-65
2024/03/11 06:39:04;0.00;0.00;0.62;0.00;0.00;0.62;6.67;6.07;;;22.70;22.50;;;;;;2262671;61;20385;-65
2024/03/11 06:41:50;0.00;0.00;0.62;0.00;0.00;0.62;6.60;5.97;;;22.70;22.50;;;;;;2263493;61;20822;-65
2024/03/11 06:44:35;0.00;0.00;0.62;0.00;0.00;0.62;7.27;6.10;;;22.70;22.50;;;;;;2263340;61;20523;-65
2024/03/11 06:47:20;0.00;0.00;0.62;0.00;0.00;0.62;6.87;6.27;;;22.70;22.50;;;;;;2263067;61;20438;-65
2024/03/11 06:50:08;0.00;0.00;0.62;0.00;0.00;0.62;7.07;6.23;;;22.70;22.50;;;;;;2263268;61;20441;-65
2024/03/11 06:52:54;0.00;0.00;0.62;0.00;0.00;0.62;7.00;6.30;;;22.60;22.40;;;;;;2263390;61;20371;-65
2024/03/11 06:55:39;0.00;0.00;0.62;0.00;0.00;0.62;6.67;5.93;;;22.70;22.50;;;;;;2262993;61;20383;-65
2024/03/11 06:58:24;0.00;0.00;0.62;0.00;0.00;0.62;7.17;6.37;;;22.60;22.40;;;;;;2263123;61;21125;-65
2024/03/11 07:01:11;0.00;0.00;0.62;0.00;0.00;0.62;7.70;7.00;;;22.60;22.40;;;;;;2262783;61;20364;-65
2024/03/11 07:03:56;0.00;0.00;0.62;0.00;0.00;0.62;7.27;6.10;;;22.70;22.50;;;;;;2263425;61;20372;-65
2024/03/11 07:06:44;0.00;0.00;0.62;0.00;0.00;0.62;6.40;5.70;;;22.70;22.50;;;;;;2263119;61;20398;-65
2024/03/11 07:09:29;0.00;0.00;0.62;0.00;0.00;0.62;7.37;6.73;;;22.70;22.50;;;;;;2262876;61;20372;-65
2024/03/11 07:12:13;0.00;0.00;0.62;0.00;0.00;0.62;8.73;7.30;;;22.70;22.50;;;;;;2263246;61;20372;-65
2024/03/11 07:15:02;0.00;0.00;0.62;0.00;0.00;0.62;8.73;7.57;;;22.60;22.40;;;;;;2263255;61;21016;-65
2024/03/11 07:17:47;0.00;0.00;0.62;0.00;0.00;0.62;7.67;6.90;;;22.60;22.60;;;;;;2258356;61;20428;-65
2024/03/11 07:20:32;0.00;0.00;0.62;0.00;0.00;0.62;8.23;7.20;;;22.60;22.50;;;;;;2259078;61;20799;-64
2024/03/11 07:23:18;0.00;0.00;0.62;0.00;0.00;0.62;8.97;7.83;;;22.60;22.40;;;;;;2258807;61;20499;-65
2024/03/11 07:26:03;0.00;0.00;0.62;0.00;0.00;0.62;9.00;8.00;;;22.60;22.50;;;;;;2263254;61;20392;-64
2024/03/11 07:28:48;0.00;0.00;0.62;0.00;0.00;0.62;8.40;7.50;;;22.60;22.40;;;;;;2263086;61;20382;-65
2024/03/11 07:31:32;0.00;0.00;0.62;0.00;0.00;0.62;8.80;7.90;;;22.60;22.50;;;;;;2262960;61;20391;-64
2024/03/11 07:34:17;0.00;0.00;0.62;0.00;0.00;0.62;8.77;7.70;;;22.60;22.50;;;;;;2262928;61;20901;-65
2024/03/11 07:37:01;0.00;0.00;0.62;0.00;0.00;0.62;9.80;7.53;;;22.60;22.50;;;;;;2263081;61;20503;-64
2024/03/11 07:39:48;0.00;0.00;0.62;0.00;0.00;0.62;8.73;7.20;;;22.60;22.50;;;;;;2262759;61;20402;-65
2024/03/11 07:42:34;0.00;0.00;0.62;0.00;0.00;0.62;9.80;8.03;;;22.60;22.50;;;;;;2259102;61;20410;-64
2024/03/11 07:45:20;0.00;0.00;0.62;0.00;0.00;0.62;9.30;7.67;;;22.70;22.50;;;;;;2262919;61;20442;-65
2024/03/11 07:48:09;0.00;0.00;0.62;0.00;0.00;0.62;9.97;8.30;;;22.60;22.50;;;;;;2346458;53;20475;-64
2024/03/11 07:50:54;0.00;0.00;0.62;0.00;0.00;0.62;9.23;7.73;;;22.60;22.50;;;;;;2262955;61;20946;-65
2024/03/11 07:53:39;0.00;0.00;0.62;0.00;0.00;0.62;9.47;7.70;;;22.60;22.50;;;;;;2262872;61;20459;-64
2024/03/11 07:56:09;0.00;0.00;0.62;0.00;0.00;0.62;9.37;7.70;;;22.60;22.50;;;;;;2262963;61;20416;-65
2024/03/11 07:58:53;0.00;0.00;0.62;0.00;0.00;0.62;8.23;7.40;;;22.60;22.50;;;;;;2263418;61;20419;-65
2024/03/11 08:01:37;0.00;0.00;0.62;0.00;0.00;0.62;8.90;8.00;;;22.60;22.50;;;;;;2263462;61;20366;-64
2024/03/11 08:04:24;0.00;0.00;0.62;0.00;0.00;0.62;8.47;7.40;;;22.70;22.60;;;;;;2263749;61;20360;-65
2024/03/11 08:07:09;0.00;0.00;0.62;0.00;0.00;0.62;7.57;6.80;;;22.60;22.50;;;;;;2263716;61;20851;-64
2024/03/11 08:09:55;0.00;0.00;0.62;0.00;0.00;0.62;8.90;7.53;;;22.60;22.50;;;;;;2263516;61;20359;-64
2024/03/11 08:12:43;0.00;0.00;0.62;0.00;0.00;0.62;9.70;7.83;;;22.60;22.50;;;;;;2264004;61;20368;-64
2024/03/11 08:15:28;0.00;0.00;0.62;0.00;0.00;0.62;7.93;7.13;;;22.70;22.60;;;;;;2263376;61;20411;-64
2024/03/11 08:18:13;0.00;0.00;0.62;0.00;0.00;0.62;9.30;7.90;;;22.70;22.60;;;;;;2263574;61;20431;-64
2024/03/11 08:20:58;0.00;0.00;0.62;0.00;0.00;0.62;7.33;6.60;;;22.70;22.60;;;;;;2263746;61;20446;-65
2024/03/11 08:23:42;0.00;0.00;0.62;0.00;0.00;0.62;7.90;6.97;;;22.70;22.60;;;;;;2263401;61;20585;-64
2024/03/11 08:26:30;0.00;0.00;0.62;0.00;0.00;0.62;7.87;6.90;;;22.70;22.60;;;;;;2263534;61;20534;-65
2024/03/11 08:29:16;0.00;0.00;0.62;0.00;0.00;0.62;7.70;6.70;;;22.60;22.50;;;;;;2263592;61;20425;-65
2024/03/11 08:32:01;0.00;0.00;0.62;0.00;0.00;0.62;7.77;6.97;;;22.70;22.60;;;;;;2260267;61;20914;-65
2024/03/11 08:34:45;0.00;0.00;0.62;0.00;0.00;0.62;8.07;7.27;;;22.70;22.60;;;;;;2263403;61;20380;-65
2024/03/11 08:37:30;0.00;0.00;0.62;0.00;0.00;0.62;7.90;7.10;;;22.70;22.60;;;;;;2263292;61;20395;-64
2024/03/11 08:40:14;0.00;0.00;0.62;0.00;0.00;0.62;7.00;6.30;;;22.70;22.60;;;;;;2263562;61;20909;-64
2024/03/11 08:42:59;0.00;0.00;0.62;0.00;0.00;0.62;7.63;6.77;;;22.70;22.60;;;;;;2263538;61;20415;-64
2024/03/11 08:45:45;0.00;0.00;0.62;0.00;0.00;0.62;8.83;7.90;;;22.70;22.60;;;;;;2263287;61;20439;-64
2024/03/11 08:48:30;0.00;0.00;0.62;0.00;0.00;0.62;7.17;6.47;;;22.70;22.60;;;;;;2263619;61;20410;-65
2024/03/11 08:51:15;0.00;0.00;0.62;0.00;0.00;0.62;7.77;6.97;;;22.70;22.60;;;;;;2263456;61;20932;-64
2024/03/11 08:54:00;0.00;0.00;0.62;0.00;0.00;0.62;8.00;7.23;;;22.70;22.60;;;;;;2263368;61;20897;-64
2024/03/11 08:56:44;0.00;0.00;0.62;0.00;0.00;0.62;7.80;7.00;;;22.70;22.60;;;;;;2263340;61;20375;-64
2024/03/11 08:59:30;0.00;0.00;0.62;0.00;0.00;0.62;9.37;7.03;;;22.70;22.60;;;;;;2263022;61;20360;-65
2024/03/11 09:02:17;0.00;0.00;0.62;0.00;0.00;0.62;8.30;6.70;;;22.70;22.60;;;;;;2263899;61;20508;-65
2024/03/11 09:05:01;0.00;0.00;0.62;0.00;0.00;0.62;8.10;6.97;;;22.70;22.70;;;;;;2263470;61;20400;-64
2024/03/11 09:07:46;0.00;0.00;0.62;0.00;0.00;0.62;7.87;7.07;;;22.70;22.60;;;;;;2263014;61;20372;-64
2024/03/11 09:10:31;0.00;0.00;0.62;0.00;0.00;0.62;7.83;7.03;;;22.70;22.60;;;;;;2263584;61;20877;-64
2024/03/11 09:13:15;0.00;0.00;0.62;0.00;0.00;0.62;6.90;6.20;;;22.70;22.60;;;;;;2263707;61;20395;-64
2024/03/11 09:16:00;0.00;0.00;0.62;0.00;0.00;0.62;8.67;7.40;;;22.70;22.60;;;;;;2263391;61;20462;-65
2024/03/11 09:18:46;0.00;0.00;0.62;0.00;0.00;0.62;7.43;6.27;;;22.70;22.60;;;;;;2263324;61;20392;-65
2024/03/11 09:21:31;0.00;0.00;0.62;0.00;0.00;0.62;9.33;7.70;;;22.70;22.60;;;;;;2263590;61;20371;-65
2024/03/11 09:24:16;0.00;0.00;0.62;0.00;0.00;0.62;7.00;6.30;;;22.70;22.70;;;;;;2541616;53;20402;-65
2024/03/11 09:27:02;0.00;0.00;0.62;0.00;0.00;0.62;7.87;6.57;;;22.70;22.60;;;;;;2263543;61;20387;-64
2024/03/11 09:29:48;0.00;0.00;0.62;0.00;0.00;0.62;6.87;5.93;;;22.70;22.70;;;;;;2263011;61;20390;-64
2024/03/11 09:32:33;0.00;0.00;0.62;0.00;0.00;0.62;7.10;6.10;;;22.70;22.70;;;;;;2263561;61;20371;-64
2024/03/11 09:35:19;0.00;0.00;0.62;0.00;0.00;0.62;8.60;6.30;;;22.70;22.70;;;;;;2263335;61;20380;-64
2024/03/11 09:38:04;0.00;0.00;0.62;0.00;0.00;0.62;6.20;5.60;;;22.70;22.70;;;;;;2263067;61;20396;-65
2024/03/11 09:40:52;0.00;0.00;0.62;0.00;0.00;0.62;6.83;6.13;;;22.70;22.70;;;;;;2263397;61;20418;-64
2024/03/11 09:43:38;0.00;0.00;0.62;0.00;0.00;0.62;7.50;6.80;;;22.70;23.20;;;;;;2263512;61;20376;-64
2024/03/11 09:46:22;0.00;0.00;0.62;0.00;0.00;0.62;7.10;5.90;;;22.80;22.80;;;;;;2654891;45;20679;-64
2024/03/11 09:49:08;0.00;0.00;0.62;0.00;0.00;0.62;6.03;5.43;;;22.70;22.70;;;;;;2259360;61;20443;-64
2024/03/11 09:52:01;0.00;0.00;0.62;0.00;0.00;0.62;6.53;5.93;;;22.80;22.80;;;;;;2260234;61;20452;-64
2024/03/11 09:54:46;0.00;0.00;0.62;0.00;0.00;0.62;6.30;5.50;;;22.80;22.80;;;;;;2263467;61;20388;-65
2024/03/11 09:57:31;0.00;0.00;0.62;0.00;0.00;0.62;6.43;5.67;;;22.80;22.80;;;;;;2263458;61;20432;-65
2024/03/11 10:00:23;0.00;0.00;0.62;0.00;0.00;0.62;6.50;5.80;;;22.80;22.80;;;;;;2259681;61;20360;-65
2024/03/11 10:03:13;0.00;0.00;0.62;0.00;0.00;0.62;7.20;6.00;;;22.80;22.80;;;;;;2263354;61;20360;-65
2024/03/11 10:05:59;0.00;0.00;0.62;0.00;0.00;0.62;6.07;5.47;;;22.80;22.80;;;;;;2263078;61;20499;-65
2024/03/11 10:08:49;0.00;0.00;0.62;0.00;0.00;0.62;6.20;5.47;;;22.80;22.80;;;;;;2259691;61;20885;-64
2024/03/11 10:11:35;0.00;0.00;0.62;0.00;0.00;0.62;6.07;5.37;;;22.80;22.80;;;;;;2263293;61;20364;-64
2024/03/11 10:14:20;0.00;0.00;0.62;0.00;0.00;0.62;6.77;6.07;;;22.80;22.80;;;;;;2263186;61;20433;-64
2024/03/11 10:17:19;0.00;0.00;0.62;0.00;0.00;0.62;6.17;5.57;;;22.80;22.80;;;;;;2263606;61;20449;-65
2024/03/11 10:20:14;0.00;0.00;0.62;0.00;0.00;0.62;6.37;5.60;;;22.80;22.80;;;;;;2263060;61;20398;-65
2024/03/11 10:23:09;0.00;0.00;0.62;0.00;0.00;0.62;6.30;5.50;;;22.80;22.80;;;;;;2263310;61;20364;-65
2024/03/11 10:26:25;0.00;0.00;0.62;0.00;0.00;0.62;6.23;5.63;;;22.80;22.80;;;;;;2263210;61;20375;-65
2024/03/11 10:29:16;0.00;0.00;0.62;0.00;0.00;0.62;6.97;5.60;;;22.80;22.80;;;;;;2262863;61;20956;-65
2024/03/11 10:32:03;0.00;0.00;0.62;0.00;0.00;0.62;5.40;4.90;;;22.80;22.80;;;;;;2263334;61;20418;-66
2024/03/11 10:34:54;0.00;0.00;0.62;0.00;0.00;0.62;5.63;5.03;;;22.80;22.80;;;;;;2263274;61;20412;-65
2024/03/11 10:37:41;0.00;0.00;0.62;0.00;0.00;0.62;6.17;5.60;;;22.80;22.80;;;;;;2262857;61;20434;-65
2024/03/11 10:40:32;0.00;0.00;0.62;0.00;0.00;0.62;5.57;5.07;;;22.80;22.80;;;;;;2263155;61;20357;-65
2024/03/11 10:43:25;0.00;0.00;0.62;0.00;0.00;0.62;6.00;4.97;;;22.80;22.80;;;;;;2262818;61;20419;-65
2024/03/11 10:46:18;0.00;0.00;0.62;0.00;0.00;0.62;4.50;4.10;;;22.90;22.90;;;;;;2263537;61;20457;-64
2024/03/11 10:49:04;0.00;0.00;0.62;0.00;0.00;0.62;5.33;4.70;;;22.90;22.90;;;;;;2263138;61;20767;-65
2024/03/11 10:51:50;0.00;0.00;0.62;0.00;0.00;0.62;5.77;5.20;;;22.90;22.90;;;;;;2263035;61;20409;-65
2024/03/11 10:54:38;0.00;0.00;0.62;0.00;0.00;0.62;4.07;3.67;;;22.90;22.90;;;;;;2263444;61;20384;-65